Time;durP1;ratioP1;P1;durP2;ratioP2;P2;SDS_P1;SDS_P2;PMS_P1;PMS_P2;Temp;Humidity;BMP_temperature;BMP_pressure;BME280_temperature;BME280_humidity;BME280_pressure;Samples;Min_cycle;Max_cycle;Signal;HPM_P1;HPM_P2
2022/11/10 00:01:21;;;;;;;5.20;4.30;;;;;;;10.47;100.00;96697.09;5030512;28;102081;-75
2022/11/10 00:04:08;;;;;;;4.53;4.13;;;;;;;10.52;100.00;96699.84;5029674;28;102356;-75
2022/11/10 00:07:19;;;;;;;6.20;5.37;;;;;;;10.48;100.00;96697.91;5029936;28;101708;-76
2022/11/10 00:10:06;;;;;;;5.70;4.60;;;;;;;10.48;100.00;96703.22;5030020;28;102059;-76
2022/11/10 00:12:52;;;;;;;4.67;4.27;;;;;;;10.47;100.00;96697.09;5029390;28;102247;-75
2022/11/10 00:18:41;;;;;;;6.13;5.30;;;;;;;10.41;100.00;96707.91;5036055;28;102050;-75
2022/11/10 00:21:29;;;;;;;5.87;5.27;;;;;;;10.42;100.00;96707.66;5029783;28;101880;-75
2022/11/10 00:24:15;;;;;;;5.73;4.77;;;;;;;10.46;100.00;96708.00;5029939;28;101831;-75
2022/11/10 00:27:01;;;;;;;4.67;4.27;;;;;;;10.47;100.00;96712.25;5028888;28;101737;-75
2022/11/10 00:29:46;;;;;;;6.10;4.80;;;;;;;10.48;100.00;96712.00;5029603;28;101783;-75
2022/11/10 00:33:01;;;;;;;5.83;4.43;;;;;;;10.48;100.00;96716.53;5029817;28;102061;-75
2022/11/10 00:36:38;;;;;;;4.93;4.40;;;;;;;10.47;100.00;96715.72;5029076;28;102239;-75
2022/11/10 00:39:25;;;;;;;4.50;4.10;;;;;;;10.52;100.00;96725.63;5032882;28;102268;-75
2022/11/10 00:42:11;;;;;;;4.33;3.83;;;;;;;10.51;100.00;96724.81;5032831;28;102062;-75
2022/11/10 00:44:57;;;;;;;4.17;3.77;;;;;;;10.49;100.00;96736.75;5033151;28;102335;-75
2022/11/10 00:47:42;;;;;;;4.63;3.97;;;;;;;10.50;100.00;96738.34;5033022;28;102187;-75
2022/11/10 00:50:28;;;;;;;3.57;3.27;;;;;;;10.50;100.00;96746.31;5031755;28;102288;-75
2022/11/10 00:56:56;;;;;;;3.50;3.20;;;;;;;10.37;100.00;96754.63;5029084;28;101941;-76
2022/11/10 00:59:42;;;;;;;3.60;3.30;;;;;;;10.42;100.00;96757.38;5016626;28;102285;-76
2022/11/10 01:02:28;;;;;;;3.43;3.07;;;;;;;10.40;100.00;96765.56;5029401;28;102142;-75
2022/11/10 01:08:55;;;;;;;4.07;2.53;;;;;;;10.52;100.00;96773.50;5028193;28;102163;-75
2022/11/10 01:11:43;;;;;;;2.27;2.17;;;;;;;10.49;100.00;96780.09;5032708;28;101688;-75
2022/11/10 01:14:30;;;;;;;2.20;2.00;;;;;;;10.54;100.00;96780.19;5030258;27;102309;-75
2022/11/10 01:17:16;;;;;;;1.80;1.63;;;;;;;10.55;100.00;96780.97;5032285;28;101707;-75
2022/11/10 01:20:02;;;;;;;1.50;1.40;;;;;;;10.57;100.00;96773.59;5032309;28;102018;-75
2022/11/10 01:22:47;;;;;;;1.17;1.00;;;;;;;10.59;100.00;96774.16;5031377;28;102265;-75
2022/11/10 01:25:33;;;;;;;1.80;1.10;;;;;;;10.56;100.00;96770.13;5028794;28;102060;-75
2022/11/10 01:28:19;;;;;;;1.37;1.30;;;;;;;10.59;100.00;96774.97;5028861;28;102073;-75
2022/11/10 01:31:08;;;;;;;1.27;1.17;;;;;;;10.60;100.00;96775.75;5031436;28;102269;-75
2022/11/10 01:34:15;;;;;;;1.17;1.10;;;;;;;10.59;100.00;96779.47;5028806;28;101716;-75
2022/11/10 01:37:08;;;;;;;1.20;1.10;;;;;;;10.59;100.00;96774.16;5034768;28;102153;-75
2022/11/10 01:39:54;;;;;;;1.20;1.20;;;;;;;10.58;100.00;96775.19;5027876;28;101858;-75
2022/11/10 01:43:09;;;;;;;1.10;1.00;;;;;;;10.58;100.00;96778.66;5028619;28;102450;-75
2022/11/10 01:45:56;;;;;;;1.30;1.10;;;;;;;10.59;100.00;96787.44;5029949;28;102260;-75
2022/11/10 01:48:45;;;;;;;0.70;0.70;;;;;;;10.58;100.00;96777.84;5028592;28;101767;-75
2022/11/10 01:51:36;;;;;;;1.60;1.47;;;;;;;10.57;100.00;96782.34;5028684;28;102086;-74
2022/11/10 01:54:25;;;;;;;0.90;0.90;;;;;;;10.57;100.00;96786.88;5027648;28;102294;-75
2022/11/10 01:57:13;;;;;;;1.60;0.87;;;;;;;10.55;100.00;96787.13;5028449;28;101916;-75
2022/11/10 01:59:59;;;;;;;0.93;0.93;;;;;;;10.55;100.00;96788.97;5028358;28;102049;-74
2022/11/10 02:03:33;;;;;;;1.80;1.30;;;;;;;10.56;100.00;96785.25;5031110;28;102318;-76
2022/11/10 02:06:59;;;;;;;1.00;1.00;;;;;;;10.54;100.00;96803.31;5028206;28;102057;-75
2022/11/10 02:09:46;;;;;;;0.83;0.83;;;;;;;10.51;100.00;96801.13;5027414;28;102270;-75
2022/11/10 02:16:12;;;;;;;1.33;0.87;;;;;;;10.49;100.00;96812.00;5028116;28;101950;-76
2022/11/10 02:18:57;;;;;;;1.50;0.90;;;;;;;10.52;100.00;96808.06;5027161;28;102278;-76
2022/11/10 02:22:10;;;;;;;1.13;1.00;;;;;;;10.47;100.00;96802.66;5028021;28;101895;-75
2022/11/10 02:24:56;;;;;;;1.00;1.00;;;;;;;10.47;100.00;96808.78;5027993;28;102058;-75
2022/11/10 02:27:42;;;;;;;1.30;1.20;;;;;;;10.50;100.00;96810.97;5030740;28;102266;-74
2022/11/10 02:30:28;;;;;;;1.57;1.13;;;;;;;10.54;100.00;96809.44;5027835;28;102053;-76
2022/11/10 02:33:19;;;;;;;1.40;1.20;;;;;;;10.51;100.00;96809.09;5027097;28;102273;-75
2022/11/10 02:39:49;;;;;;;0.90;0.90;;;;;;;10.50;100.00;96815.47;5027630;28;101921;-76
2022/11/10 02:43:23;;;;;;;1.10;1.10;;;;;;;10.36;100.00;96812.28;5027286;28;102236;-75
2022/11/10 02:46:08;;;;;;;1.60;1.50;;;;;;;10.30;100.00;96812.47;5030087;28;101892;-75
2022/11/10 02:48:54;;;;;;;2.57;2.37;;;;;;;10.34;100.00;96825.03;5027554;28;102053;-75
2022/11/10 02:51:50;;;;;;;2.20;2.10;;;;;;;10.27;100.00;96827.03;5030661;28;102252;-75
2022/11/10 02:54:35;;;;;;;5.27;3.47;;;;;;;10.11;100.00;96826.97;5034748;28;101674;-75
2022/11/10 02:57:23;;;;;;;4.40;4.10;;;;;;;10.03;100.00;96830.75;5030587;28;101752;-75
2022/11/10 03:00:10;;;;;;;4.93;4.53;;;;;;;10.02;100.00;96831.00;5030840;28;101981;-75
2022/11/10 03:03:04;;;;;;;4.80;4.40;;;;;;;10.03;100.00;96838.75;5031261;28;101689;-75
2022/11/10 03:06:11;;;;;;;5.57;5.10;;;;;;;10.08;100.00;96841.53;5030567;28;102259;-74
2022/11/10 03:08:57;;;;;;;6.00;5.50;;;;;;;10.03;100.00;96843.25;5030973;28;101862;-75
2022/11/10 03:11:46;;;;;;;5.73;5.20;;;;;;;9.99;100.00;96850.06;5031093;28;101715;-75
2022/11/10 03:14:33;;;;;;;5.63;5.17;;;;;;;9.89;100.00;96845.38;5031858;27;102277;-75
2022/11/10 03:17:18;;;;;;;6.60;6.00;;;;;;;9.81;100.00;96850.25;5030999;28;101740;-75
2022/11/10 03:20:04;;;;;;;7.40;6.80;;;;;;;9.75;100.00;96846.66;5033756;28;101693;-75
2022/11/10 03:22:50;;;;;;;7.80;7.10;;;;;;;9.74;100.00;96857.50;5030778;28;101683;-75
2022/11/10 03:25:36;;;;;;;7.83;7.13;;;;;;;9.73;100.00;96858.56;5030957;28;102056;-75
2022/11/10 03:28:21;;;;;;;7.53;6.93;;;;;;;9.73;100.00;96864.69;5029871;28;102222;-75
2022/11/10 03:31:08;;;;;;;7.10;6.50;;;;;;;9.66;100.00;96863.97;5030476;28;101727;-75
2022/11/10 03:37:35;;;;;;;6.60;6.10;;;;;;;9.62;100.00;96875.31;5029401;28;102207;-75
2022/11/10 03:40:21;;;;;;;6.03;5.53;;;;;;;9.61;100.00;96879.84;5030498;28;101982;-75
2022/11/10 03:46:49;;;;;;;6.73;6.03;;;;;;;9.46;100.00;96890.09;5033172;28;102112;-74
2022/11/10 03:49:34;;;;;;;7.40;6.30;;;;;;;9.49;100.00;96888.84;5030091;28;102100;-75
2022/11/10 03:52:20;;;;;;;5.80;5.30;;;;;;;9.52;100.00;96898.97;5029484;28;102248;-75
2022/11/10 03:55:06;;;;;;;6.40;5.63;;;;;;;9.46;100.00;96895.41;5030198;28;101811;-75
2022/11/10 03:57:52;;;;;;;6.07;5.57;;;;;;;9.43;100.00;96905.69;5030406;28;102057;-75
2022/11/10 04:00:38;;;;;;;6.30;5.70;;;;;;;9.50;100.00;96903.72;5029559;28;102276;-75
2022/11/10 04:03:25;;;;;;;5.83;5.33;;;;;;;9.46;100.00;96910.53;5029789;28;101739;-75
2022/11/10 04:09:41;;;;;;;6.10;5.47;;;;;;;9.45;100.00;96908.91;5032766;28;102241;-75
2022/11/10 04:15:42;;;;;;;5.83;5.33;;;;;;;9.29;100.00;96918.38;5032672;28;102223;-75
2022/11/10 04:18:29;;;;;;;5.97;4.80;;;;;;;9.37;100.00;96927.84;5030154;28;101777;-75
2022/11/10 04:21:15;;;;;;;5.93;5.33;;;;;;;9.35;100.00;96932.56;5030014;28;102045;-75
2022/11/10 04:24:08;;;;;;;6.37;5.37;;;;;;;9.31;100.00;96937.53;5029476;28;102195;-76
2022/11/10 04:26:53;;;;;;;5.77;5.27;;;;;;;9.35;100.00;96937.88;5029852;28;102222;-75
2022/11/10 04:29:39;;;;;;;6.43;5.83;;;;;;;9.36;100.00;96939.47;5029817;28;101695;-75
2022/11/10 04:32:24;;;;;;;5.60;5.10;;;;;;;9.28;100.00;96945.13;5029293;28;102236;-75
2022/11/10 04:35:30;;;;;;;5.70;5.20;;;;;;;9.17;100.00;96972.44;5029566;28;101940;-75
2022/11/10 04:38:16;;;;;;;7.07;6.37;;;;;;;9.19;100.00;96999.56;5032455;28;102451;-76
2022/11/10 04:41:02;;;;;;;5.40;4.90;;;;;;;9.17;100.00;97004.28;5029421;28;101729;-75
2022/11/10 04:43:57;;;;;;;2.60;2.40;;;;;;;9.22;100.00;97004.44;5029512;28;102086;-75
2022/11/10 04:46:43;;;;;;;3.97;2.70;;;;;;;9.27;100.00;97013.31;5028830;28;102220;-75
2022/11/10 04:49:28;;;;;;;2.50;2.40;;;;;;;9.32;100.00;97010.00;5029342;28;101781;-75
2022/11/10 04:52:44;;;;;;;2.03;1.93;;;;;;;9.35;100.00;97014.84;5029360;28;102067;-75
2022/11/10 04:55:29;;;;;;;2.30;2.10;;;;;;;9.42;100.00;97019.00;5028945;28;102192;-75
2022/11/10 04:58:15;;;;;;;3.80;2.10;;;;;;;9.48;100.00;97019.97;5029483;28;101670;-75
2022/11/10 05:01:00;;;;;;;2.47;2.20;;;;;;;9.49;100.00;97014.41;5035590;28;102057;-75
2022/11/10 05:03:57;;;;;;;3.13;2.47;;;;;;;9.50;100.00;97021.34;5029198;28;101680;-74
2022/11/10 05:10:26;;;;;;;3.30;2.50;;;;;;;9.56;100.00;97022.28;5028272;28;102137;-75
2022/11/10 05:17:10;;;;;;;2.47;2.10;;;;;;;9.53;100.00;97028.03;5028707;28;101993;-75
2022/11/10 05:19:56;;;;;;;4.63;2.40;;;;;;;9.52;100.00;97031.72;5028366;28;102865;-74
2022/11/10 05:26:24;;;;;;;3.13;2.67;;;;;;;9.44;100.00;97046.13;5028827;28;101950;-74
2022/11/10 05:29:09;;;;;;;4.83;3.63;;;;;;;9.35;100.00;97046.69;5031818;28;102238;-75
2022/11/10 05:32:00;;;;;;;6.90;4.33;;;;;;;9.34;100.00;97053.03;5028424;28;102134;-74
2022/11/10 05:34:56;;;;;;;4.33;3.93;;;;;;;9.27;100.00;97057.63;5028260;28;102217;-75
2022/11/10 05:37:42;;;;;;;5.23;4.73;;;;;;;9.27;100.00;97054.97;5028385;28;101746;-74
2022/11/10 05:40:28;;;;;;;5.40;4.90;;;;;;;9.26;100.00;97069.28;5028821;28;102070;-75
2022/11/10 05:43:54;;;;;;;5.73;5.17;;;;;;;9.16;100.00;97071.66;5028147;28;102156;-74
2022/11/10 05:46:42;;;;;;;5.50;5.00;;;;;;;9.17;100.00;97083.91;5028532;28;102150;-75
2022/11/10 05:49:27;;;;;;;6.70;5.60;;;;;;;9.15;100.00;97088.59;5028603;28;102045;-75
2022/11/10 05:52:15;;;;;;;6.13;5.50;;;;;;;9.18;100.00;97089.00;5027573;28;102251;-76
2022/11/10 05:55:02;;;;;;;7.13;5.80;;;;;;;9.19;100.00;97097.75;5031873;28;101887;-76
2022/11/10 05:57:49;;;;;;;5.80;5.30;;;;;;;9.17;100.00;97097.16;5027731;28;102353;-72
2022/11/10 06:00:35;;;;;;;7.23;5.43;;;;;;;9.19;100.00;97098.56;5028549;28;101632;-73
2022/11/10 06:04:07;;;;;;;6.17;5.40;;;;;;;9.16;100.00;97106.97;5028352;28;102054;-72
2022/11/10 06:07:35;;;;;;;6.23;5.60;;;;;;;9.13;100.00;97118.03;5027677;28;102209;-72
2022/11/10 06:10:22;;;;;;;6.40;5.80;;;;;;;9.11;100.00;97130.69;5028151;28;101975;-73
2022/11/10 06:13:47;;;;;;;6.93;6.03;;;;;;;9.17;100.00;97134.31;5028064;27;102069;-73
2022/11/10 06:16:32;;;;;;;6.73;5.90;;;;;;;9.20;100.00;97141.81;5027602;28;102207;-73
2022/11/10 06:19:18;;;;;;;5.63;5.13;;;;;;;9.21;100.00;97151.41;5027739;28;101669;-73
2022/11/10 06:22:32;;;;;;;6.07;5.30;;;;;;;9.21;100.00;97160.16;5030826;28;102073;-73
2022/11/10 06:25:18;;;;;;;6.70;5.53;;;;;;;9.22;100.00;97171.63;5027549;28;101964;-73
2022/11/10 06:28:06;;;;;;;5.80;5.17;;;;;;;9.20;100.00;97171.81;5027913;28;102064;-73
2022/11/10 06:30:51;;;;;;;6.07;5.47;;;;;;;9.21;100.00;97183.25;5027015;28;102883;-72
2022/11/10 06:33:38;;;;;;;5.37;4.77;;;;;;;9.28;100.00;97184.00;5027588;28;101964;-73
2022/11/10 06:36:32;;;;;;;6.50;5.17;;;;;;;9.31;100.00;97188.84;5027905;28;102184;-73
2022/11/10 06:39:18;;;;;;;5.23;4.83;;;;;;;9.32;100.00;97196.59;5027119;28;102172;-74
2022/11/10 06:42:49;;;;;;;5.30;4.77;;;;;;;9.36;100.00;97203.06;5027650;28;102022;-73
2022/11/10 06:45:36;;;;;;;5.63;5.10;;;;;;;9.39;100.00;97207.13;5029399;28;102121;-74
2022/11/10 06:48:23;;;;;;;8.10;5.50;;;;;;;9.40;100.00;97208.75;5033312;28;103963;-74
2022/11/10 06:51:08;;;;;;;5.63;5.13;;;;;;;9.38;100.00;97213.47;5027393;28;102080;-73
2022/11/10 06:53:56;;;;;;;6.87;5.47;;;;;;;9.36;100.00;97220.84;5027110;28;102256;-74
2022/11/10 06:56:42;;;;;;;7.10;5.97;;;;;;;9.38;100.00;97216.94;5027369;28;101714;-73
2022/11/10 06:59:27;;;;;;;7.30;6.70;;;;;;;9.39;100.00;97228.38;5027339;28;101719;-74
2022/11/10 07:02:51;;;;;;;5.77;5.23;;;;;;;9.40;100.00;97240.59;5027146;28;102234;-73
2022/11/10 07:06:00;;;;;;;7.03;6.33;;;;;;;9.43;100.00;97242.81;5027180;28;101886;-73
2022/11/10 07:08:46;;;;;;;7.20;6.50;;;;;;;9.41;100.00;97247.53;5027584;28;102037;-73
2022/11/10 07:12:14;;;;;;;8.50;5.10;;;;;;;9.44;100.00;97245.22;5026766;28;102223;-73
2022/11/10 07:15:00;;;;;;;6.50;5.30;;;;;;;9.46;100.00;97260.94;5033530;28;101902;-74
2022/11/10 07:17:45;;;;;;;7.13;5.77;;;;;;;9.46;100.00;97255.63;5026868;28;102283;-74
2022/11/10 07:20:31;;;;;;;7.60;5.73;;;;;;;9.50;100.00;97262.13;5027449;28;101650;-74
2022/11/10 07:27:00;;;;;;;6.43;5.47;;;;;;;9.61;100.00;97258.72;5026534;28;102080;-73
2022/11/10 07:29:46;;;;;;;5.77;5.20;;;;;;;9.59;100.00;97266.91;5027295;28;101758;-73
2022/11/10 07:36:37;;;;;;;6.00;5.27;;;;;;;9.72;100.00;97271.25;5026448;27;102111;-73
2022/11/10 07:39:23;;;;;;;5.90;5.27;;;;;;;9.72;100.00;97276.56;5033816;28;101668;-73
2022/11/10 07:42:26;;;;;;;7.80;5.07;;;;;;;9.77;100.00;97279.38;5030008;28;102227;-72
2022/11/10 07:45:11;;;;;;;6.33;5.27;;;;;;;9.80;100.00;97284.22;5031624;28;101925;-73
2022/11/10 07:48:00;;;;;;;7.30;5.27;;;;;;;9.86;100.00;97283.34;5030330;28;102023;-73
2022/11/10 07:50:46;;;;;;;5.63;4.60;;;;;;;9.89;100.00;97298.84;5029662;28;101693;-73
2022/11/10 07:54:02;;;;;;;6.20;5.00;;;;;;;9.94;100.00;97306.94;5030526;28;101655;-73
2022/11/10 07:56:48;;;;;;;5.47;4.90;;;;;;;9.99;100.00;97304.44;5030149;28;102079;-73
2022/11/10 07:59:34;;;;;;;6.80;4.67;;;;;;;9.91;100.00;97313.50;5029640;28;101722;-73
2022/11/10 08:02:46;;;;;;;5.57;4.80;;;;;;;10.02;100.00;97310.09;5029480;28;102202;-75
2022/11/10 08:05:50;;;;;;;6.20;5.03;;;;;;;10.09;100.00;97312.72;5032558;28;102127;-73
2022/11/10 08:08:36;;;;;;;5.60;5.10;;;;;;;10.07;100.00;97310.28;5029869;28;101773;-72
2022/11/10 08:11:33;;;;;;;7.10;4.90;;;;;;;10.01;100.00;97308.50;5029961;28;102060;-72
2022/11/10 08:14:19;;;;;;;5.37;4.87;;;;;;;10.01;100.00;97308.50;5016296;28;102465;-75
2022/11/10 08:17:06;;;;;;;5.60;5.10;;;;;;;10.11;100.00;97311.47;5028172;28;101677;-76
2022/11/10 08:19:51;;;;;;;6.60;5.57;;;;;;;10.12;100.00;97317.56;5029952;28;102080;-74
2022/11/10 08:22:39;;;;;;;5.63;5.03;;;;;;;10.24;100.00;97318.44;5028798;28;101668;-73
2022/11/10 08:25:24;;;;;;;7.43;6.63;;;;;;;10.37;100.00;97327.03;5029376;28;102012;-76
2022/11/10 08:28:11;;;;;;;5.80;5.30;;;;;;;10.35;100.00;97317.69;5029365;28;102077;-77
2022/11/10 08:30:57;;;;;;;7.00;4.90;;;;;;;10.37;100.00;97326.22;5032163;28;102274;-77
2022/11/10 08:34:26;;;;;;;4.67;4.30;;;;;;;10.53;100.00;97331.69;5029241;28;102327;-74
2022/11/10 08:37:14;;;;;;;6.20;4.83;;;;;;;10.63;100.00;97347.94;5028463;28;102289;-77
2022/11/10 08:39:59;;;;;;;5.37;4.00;;;;;;;10.85;100.00;97349.03;5028749;28;101711;-75
2022/11/10 08:42:45;;;;;;;4.97;3.50;;;;;;;10.92;100.00;97354.25;5028893;28;102080;-73
2022/11/10 08:45:31;;;;;;;4.33;3.40;;;;;;;10.90;100.00;97357.13;5031260;28;102250;-73
2022/11/10 08:48:18;;;;;;;3.73;3.13;;;;;;;10.92;100.00;97364.91;5013853;28;101982;-73
2022/11/10 08:51:04;;;;;;;3.50;3.10;;;;;;;10.87;100.00;97362.09;5029243;28;102094;-74
2022/11/10 08:54:32;;;;;;;4.30;3.40;;;;;;;10.97;100.00;97362.34;5028212;28;102231;-74
2022/11/10 08:57:19;;;;;;;4.73;3.50;;;;;;;11.02;100.00;97367.81;5032469;28;101920;-73
2022/11/10 09:00:05;;;;;;;4.50;4.07;;;;;;;11.18;100.00;97377.78;5028549;28;102336;-73
2022/11/10 09:03:30;;;;;;;4.13;3.20;;;;;;;11.26;100.00;97382.75;5028914;28;101753;-75
2022/11/10 09:06:25;;;;;;;4.77;3.90;;;;;;;11.12;100.00;97378.72;5028647;28;101754;-71
2022/11/10 09:09:10;;;;;;;5.23;3.80;;;;;;;11.22;100.00;97381.59;5030874;28;102240;-65
2022/11/10 09:15:40;;;;;;;6.60;3.70;;;;;;;11.29;100.00;97387.63;5028124;28;102051;-68
2022/11/10 09:18:25;;;;;;;4.90;4.13;;;;;;;11.44;100.00;97393.34;5031208;28;102253;-68
2022/11/10 09:21:11;;;;;;;4.13;3.70;;;;;;;11.37;100.00;97403.25;5028693;28;101709;-71
2022/11/10 09:27:38;;;;;;;5.10;4.20;;;;;;;11.83;100.00;97408.63;5028168;28;101936;-68
2022/11/10 09:30:25;;;;;;;6.10;3.87;;;;;;;12.08;100.00;97409.16;5028346;28;102088;-68
2022/11/10 09:33:18;;;;;;;5.23;4.30;;;;;;;12.31;100.00;97407.25;5027500;28;102266;-68
2022/11/10 09:36:31;;;;;;;4.57;3.67;;;;;;;12.45;100.00;97403.28;5014232;28;102051;-69
2022/11/10 09:39:17;;;;;;;4.87;3.60;;;;;;;12.29;100.00;97416.53;5028170;28;102558;-69
2022/11/10 09:42:20;;;;;;;5.53;3.27;;;;;;;12.54;100.00;97411.72;5027427;28;102288;-69
2022/11/10 09:45:17;;;;;;;3.40;3.00;;;;;;;12.73;100.00;97418.47;5029312;28;102007;-70
2022/11/10 09:48:11;;;;;;;3.00;2.53;;;;;;;12.82;100.00;97417.06;5028186;28;102109;-68
2022/11/10 09:51:01;;;;;;;3.20;2.53;;;;;;;12.76;100.00;97424.16;5030788;28;101966;-67
2022/11/10 09:54:11;;;;;;;3.13;2.23;;;;;;;13.05;100.00;97417.78;5028054;28;102144;-68
2022/11/10 09:56:59;;;;;;;1.87;1.67;;;;;;;13.23;100.00;97414.06;5027214;28;102382;-66
2022/11/10 09:59:46;;;;;;;2.50;1.33;;;;;;;13.36;100.00;97411.88;5026709;28;103373;-69
2022/11/10 10:02:42;;;;;;;2.80;1.50;;;;;;;13.33;100.00;97416.91;5027979;28;103157;-69
2022/11/10 10:06:09;;;;;;;2.70;1.70;;;;;;;13.36;100.00;97424.47;5027221;28;102250;-66
2022/11/10 10:09:06;;;;;;;2.73;1.50;;;;;;;13.42;100.00;97424.28;5027755;28;101989;-67
2022/11/10 10:15:44;;;;;;;4.20;1.60;;;;;;;13.59;100.00;97437.66;5010205;28;102243;-66
2022/11/10 10:18:37;;;;;;;2.80;2.30;;;;;;;13.65;100.00;97440.16;5007737;28;102067;-67
2022/11/10 10:21:44;;;;;;;3.33;2.30;;;;;;;13.58;100.00;97438.72;5015236;28;102283;-68
2022/11/10 10:24:33;;;;;;;2.13;1.93;;;;;;;13.55;100.00;97433.84;5027704;28;101830;-68
2022/11/10 10:27:24;;;;;;;3.67;2.13;;;;;;;14.08;100.00;97426.06;5027386;28;102200;-68
2022/11/10 10:30:14;;;;;;;5.30;2.23;;;;;;;13.98;100.00;97434.78;5026995;28;102261;-68
2022/11/10 10:33:17;;;;;;;3.50;1.97;;;;;;;13.52;100.00;97434.34;5027057;28;102373;-67
2022/11/10 10:36:29;;;;;;;3.20;1.57;;;;;;;13.11;100.00;97435.53;5016032;28;102142;-68
2022/11/10 10:39:22;;;;;;;2.43;1.67;;;;;;;13.34;100.00;97437.22;5026386;28;102232;-68
2022/11/10 10:42:30;;;;;;;2.67;1.70;;;;;;;13.61;100.00;97435.53;5030547;28;101863;-68
2022/11/10 10:45:20;;;;;;;2.83;1.83;;;;;;;14.02;100.00;97432.41;5027920;28;102360;-69
2022/11/10 10:48:24;;;;;;;3.00;1.70;;;;;;;13.70;100.00;97439.44;5027146;28;101786;-69
2022/11/10 10:51:11;;;;;;;2.30;1.50;;;;;;;13.86;100.00;97435.94;5027220;28;102045;-69
2022/11/10 10:54:02;;;;;;;2.97;1.57;;;;;;;13.93;100.00;97441.91;5026138;28;102278;-70
2022/11/10 10:56:50;;;;;;;2.10;1.20;;;;;;;13.70;100.00;97440.25;5027183;28;102049;-70
2022/11/10 10:59:35;;;;;;;3.70;1.63;;;;;;;13.90;100.00;97437.06;5026925;28;102107;-69
2022/11/10 11:02:32;;;;;;;4.30;1.80;;;;;;;14.25;100.00;97429.53;5024015;28;102426;-70
2022/11/10 11:05:31;;;;;;;2.10;1.37;;;;;;;14.20;100.00;97427.63;5021344;27;102252;-71
2022/11/10 11:08:18;;;;;;;3.93;1.30;;;;;;;13.98;100.00;97426.75;5009407;28;102089;-71
2022/11/10 11:11:09;;;;;;;2.63;1.50;;;;;;;14.14;100.00;97439.28;5008273;28;101737;-70
2022/11/10 11:14:19;;;;;;;2.67;1.33;;;;;;;13.86;100.00;97436.75;5017628;27;102243;-70
2022/11/10 11:17:13;;;;;;;1.27;1.10;;;;;;;14.01;100.00;97428.13;5013627;28;102336;-70
2022/11/10 11:19:59;;;;;;;1.90;1.10;;;;;;;13.92;100.00;97432.28;5024431;28;102234;-71
2022/11/10 11:23:00;;;;;;;2.43;1.20;;;;;;;13.96;100.00;97426.16;5006255;28;102090;-71
2022/11/10 11:25:50;;;;;;;3.93;1.40;;;;;;;13.89;100.00;97430.91;5010320;28;103002;-71
2022/11/10 11:28:45;;;;;;;3.17;1.20;;;;;;;13.74;100.00;97438.69;5009629;27;102449;-71
2022/11/10 11:31:50;;;;;;;3.80;1.47;;;;;;;13.81;100.00;97433.19;5024729;27;103777;-70
2022/11/10 11:34:56;;;;;;;4.17;2.27;;;;;;;14.01;100.00;97426.25;5030961;27;102576;-70
2022/11/10 11:37:51;;;;;;;15.30;8.87;;;;;;;14.72;100.00;97425.31;5008726;27;102176;-71
2022/11/10 11:40:46;;;;;;;13.63;7.23;;;;;;;15.14;100.00;97431.63;5004794;28;102479;-71
2022/11/10 11:43:50;;;;;;;5.53;2.00;;;;;;;14.97;100.00;97433.59;5016707;27;102357;-71
2022/11/10 11:46:46;;;;;;;2.20;1.37;;;;;;;15.17;100.00;97440.00;5022706;27;102264;-70
2022/11/10 11:49:47;;;;;;;1.53;1.30;;;;;;;15.39;100.00;97442.63;5017407;28;102335;-70
2022/11/10 11:52:40;;;;;;;2.90;1.30;;;;;;;15.26;100.00;97437.66;5008878;28;102207;-71
2022/11/10 11:55:40;;;;;;;3.20;1.40;;;;;;;15.67;100.00;97447.69;5009049;28;102103;-71
2022/11/10 11:58:40;;;;;;;2.30;1.53;;;;;;;16.01;100.00;97436.41;5013887;28;103119;-71
2022/11/10 12:01:41;;;;;;;4.40;1.83;;;;;;;15.61;100.00;97448.72;5032867;28;101782;-70
2022/11/10 12:05:10;;;;;;;1.73;1.47;;;;;;;15.51;100.00;97443.25;5028779;28;102362;-71
2022/11/10 12:08:04;;;;;;;2.03;1.23;;;;;;;15.88;100.00;97446.75;5029500;28;101930;-71
2022/11/10 12:11:01;;;;;;;4.47;1.27;;;;;;;15.59;100.00;97440.91;5029455;28;102045;-70
2022/11/10 12:14:04;;;;;;;1.53;0.83;;;;;;;15.67;100.00;97445.81;5029329;28;102290;-71
2022/11/10 12:17:00;;;;;;;1.83;0.70;;;;;;;15.66;100.00;97441.53;5029188;28;101739;-70
2022/11/10 12:19:53;;;;;;;1.27;0.90;;;;;;;16.09;100.00;97443.16;5028897;28;102052;-70
2022/11/10 12:22:52;;;;;;;1.90;1.20;;;;;;;17.03;100.00;97437.41;5027858;28;102292;-71
2022/11/10 12:25:45;;;;;;;2.00;0.93;;;;;;;16.79;100.00;97433.56;5032729;28;102132;-70
2022/11/10 12:28:34;;;;;;;1.77;1.00;;;;;;;16.81;100.00;97431.44;5028498;28;102348;-70
2022/11/10 12:31:23;;;;;;;1.67;1.00;;;;;;;16.65;100.00;97431.63;5029385;28;101937;-71
2022/11/10 12:34:18;;;;;;;2.60;1.40;;;;;;;17.03;100.00;97420.47;5029061;28;102124;-71
2022/11/10 12:37:25;;;;;;;2.43;1.33;;;;;;;17.89;100.00;97411.38;5028862;28;102237;-68
2022/11/10 12:40:17;;;;;;;3.33;1.40;;;;;;;18.10;100.00;97411.06;5029165;28;102241;-69
2022/11/10 12:43:29;;;;;;;4.63;1.03;;;;;;;18.48;100.00;97409.66;5029137;28;102076;-66
2022/11/10 12:46:14;;;;;;;2.67;1.30;;;;;;;18.22;100.00;97410.78;5030703;28;102289;-68
2022/11/10 12:49:11;;;;;;;2.00;0.80;;;;;;;17.74;100.00;97408.69;5029042;28;102081;-70
2022/11/10 12:52:16;;;;;;;0.63;0.60;;;;;;;18.05;100.00;97418.34;5031891;28;102130;-70
2022/11/10 12:55:02;;;;;;;2.30;0.80;;;;;;;18.17;100.00;97416.16;5029040;28;101933;-68
2022/11/10 12:57:50;;;;;;;2.20;0.90;;;;;;;17.23;100.00;97431.25;5029068;28;102047;-70
2022/11/10 13:00:43;;;;;;;1.53;1.30;;;;;;;16.90;100.00;97439.78;5028112;28;102356;-68
2022/11/10 13:03:55;;;;;;;2.97;1.43;;;;;;;16.56;100.00;97444.78;5028768;28;101967;-70
2022/11/10 13:07:24;;;;;;;4.70;1.80;;;;;;;16.40;100.00;97448.44;5028622;28;102037;-70
2022/11/10 13:10:22;;;;;;;2.77;1.47;;;;;;;15.85;100.00;97440.03;5027963;28;102286;-68
2022/11/10 13:13:17;;;;;;;2.10;1.40;;;;;;;15.35;100.00;97430.78;5008588;28;103445;-68
2022/11/10 13:16:03;;;;;;;4.27;1.90;;;;;;;15.29;100.00;97434.44;5008252;28;102044;-69
2022/11/10 13:18:53;;;;;;;3.07;1.77;;;;;;;15.17;100.00;97428.44;5011286;28;102296;-69
2022/11/10 13:22:12;;;;;;;2.97;1.57;;;;;;;15.10;100.00;97434.00;5028358;28;101726;-70
2022/11/10 13:25:35;;;;;;;1.53;1.27;;;;;;;14.97;100.00;97422.88;4946019;28;102400;-69
2022/11/10 13:28:54;;;;;;;2.17;1.13;;;;;;;15.17;100.00;97423.09;4946810;28;101999;-68
2022/11/10 13:31:50;;;;;;;4.00;1.30;;;;;;;15.30;100.00;97426.16;4949945;28;102120;-70
2022/11/10 13:35:17;;;;;;;2.67;1.20;;;;;;;15.85;100.00;97421.25;4945270;28;102300;-67
2022/11/10 13:38:03;;;;;;;7.17;1.37;;;;;;;16.29;100.00;97427.16;4932342;28;101856;-65
2022/11/10 13:40:48;;;;;;;3.50;1.27;;;;;;;17.15;100.00;97421.03;4946794;28;102086;-68
2022/11/10 13:43:48;;;;;;;2.80;1.30;;;;;;;17.54;100.00;97422.97;4929516;28;102274;-64
2022/11/10 13:46:36;;;;;;;1.70;1.50;;;;;;;18.03;100.00;97428.59;4930529;28;101968;-67
2022/11/10 13:49:37;;;;;;;1.90;1.40;;;;;;;17.48;100.00;97434.00;4928726;28;102305;-68
2022/11/10 13:52:33;;;;;;;1.90;1.10;;;;;;;17.25;100.00;97443.38;4943507;28;101958;-70
2022/11/10 13:55:27;;;;;;;2.50;1.13;;;;;;;17.41;100.00;97441.53;4977389;28;102080;-65
2022/11/10 13:58:19;;;;;;;3.57;1.60;;;;;;;17.81;100.00;97444.22;5027947;28;102297;-68
2022/11/10 14:01:29;;;;;;;2.23;1.27;;;;;;;18.10;100.00;97447.97;5028366;28;101683;-69
2022/11/10 14:08:04;;;;;;;3.40;1.30;;;;;;;18.57;100.00;97446.50;5027428;28;102135;-69
2022/11/10 14:10:52;;;;;;;3.17;1.30;;;;;;;17.36;100.00;97450.38;5028227;28;101738;-70
2022/11/10 14:13:50;;;;;;;2.57;1.40;;;;;;;17.61;100.00;97444.22;5030904;27;102107;-70
2022/11/10 14:16:41;;;;;;;2.30;1.30;;;;;;;17.76;100.00;97439.66;5027973;28;102050;-70
2022/11/10 14:19:36;;;;;;;2.67;1.10;;;;;;;18.04;100.00;97449.06;5028235;28;102078;-70
2022/11/10 14:22:39;;;;;;;1.53;1.10;;;;;;;18.10;100.00;97445.28;5007562;28;102288;-74
2022/11/10 14:25:33;;;;;;;1.77;1.00;;;;;;;18.14;100.00;97446.34;5014483;28;103357;-68
2022/11/10 14:28:25;;;;;;;1.23;1.13;;;;;;;18.36;100.00;97449.56;5027732;28;102111;-66